메인 페이지
METAR-TAF:

METAR-TAF

공항 :

머리디언, 미시시피, 미국

위도: 32-32-47N, 경도: 088-32-35W, 고도: 96m

현재 날씨관측

예보는 15분 전, 00:56시(UTC)에 발표되었습니다.
무풍
온도 28°C
습도 79%
기압 1016 hPa
시정: 16.1km
고도 12000ft 상공 구름 조금
고도 25000ft 상공 구름 조금

METAR: KNMM 210056Z 00000KT 10SM FEW120 FEW250 28/24 A3000 RMK AO2 SLP165 T02830239 $

시각: 20:11 (01:11 UTC)

예보

예보 대상 시간: 20일 23시부터 21일 23시까지 (UTC)
여러 방향의 바람 4kt
시정 10km 이상
고도 5500ft 상공 구름 조금
고도 12000ft 상공 구름 조금
21일 1100시부터 (UTC)
여러 방향의 바람 3kt
시정: 6000m
고도 1500ft 상공 구름 조금
고도 4000ft 상공 구름 조금
박무
21일 1400시부터 (UTC)
남남동8kt
시정: 2112m
고도 5000ft 상공 구름 보통
고도 11000ft 상공 구름 보통

TAF: KNMM 2023/2123 VRB04KT 9999 FEW055 FEW120 QNH2996INS FM211100 VRB03KT 6000 BR FEW015 FEW040 QNH3003INS FM211400 15008KT 9999 SCT050 SCT110 QNH2999INS AUTOMATED SENSOR METWATCH 2105 TIL 2112 T22/2111Z T35/2120Z FN20037

4,000개 이상의 공항 관측 자료 및 예보 (METAR 및 TAF 보고).

지도상에서 검색 가능한 기상관측소가 노란 점과 빨간 점으로 표시되어 있습니다.

기상관측소 명을 보려면 표시 위로 마우스를 이동하세요.

날씨 관측과 예보를 보려면 클릭하세요.

지도 변경 : 확대하려면 엑스 표시가 있는 녹색 버튼, 축소하려면 빼기 표시가 있는 녹색 버튼, 다음 페이지의 지도를 보려면 녹색 화살표를 클릭하세요.


METAR-TAF: